sensor_id;sensor_type;location;lat;lon;timestamp;P1;durP1;ratioP1;P2;durP2;ratioP2
85223;SDS011;75619;51.316;4.824;2024-02-04T00:01:41;34.33;;;16.58;;
85223;SDS011;75619;51.316;4.824;2024-02-04T00:04:10;43.10;;;18.35;;
85223;SDS011;75619;51.316;4.824;2024-02-04T00:06:45;40.17;;;16.70;;
85223;SDS011;75619;51.316;4.824;2024-02-04T00:09:14;42.88;;;18.58;;
85223;SDS011;75619;51.316;4.824;2024-02-04T00:11:47;41.60;;;17.60;;
85223;SDS011;75619;51.316;4.824;2024-02-04T00:14:43;42.50;;;16.30;;
85223;SDS011;75619;51.316;4.824;2024-02-04T00:17:17;35.03;;;15.98;;
85223;SDS011;75619;51.316;4.824;2024-02-04T00:19:52;35.05;;;16.95;;
85223;SDS011;75619;51.316;4.824;2024-02-04T00:22:18;37.17;;;16.23;;
85223;SDS011;75619;51.316;4.824;2024-02-04T00:24:53;37.97;;;14.70;;
85223;SDS011;75619;51.316;4.824;2024-02-04T00:27:29;33.95;;;14.98;;
85223;SDS011;75619;51.316;4.824;2024-02-04T00:30:04;33.45;;;15.98;;
85223;SDS011;75619;51.316;4.824;2024-02-04T00:32:38;34.85;;;15.43;;
85223;SDS011;75619;51.316;4.824;2024-02-04T00:35:09;35.08;;;15.48;;
85223;SDS011;75619;51.316;4.824;2024-02-04T00:37:35;30.63;;;13.65;;
85223;SDS011;75619;51.316;4.824;2024-02-04T00:40:04;34.60;;;14.75;;
85223;SDS011;75619;51.316;4.824;2024-02-04T00:42:33;31.45;;;14.85;;
85223;SDS011;75619;51.316;4.824;2024-02-04T00:45:08;30.15;;;13.43;;
85223;SDS011;75619;51.316;4.824;2024-02-04T00:47:35;25.95;;;13.63;;
85223;SDS011;75619;51.316;4.824;2024-02-04T00:50:02;28.60;;;13.95;;
85223;SDS011;75619;51.316;4.824;2024-02-04T00:52:29;28.85;;;15.85;;
85223;SDS011;75619;51.316;4.824;2024-02-04T00:54:57;28.70;;;14.77;;
85223;SDS011;75619;51.316;4.824;2024-02-04T00:57:26;28.38;;;12.25;;
85223;SDS011;75619;51.316;4.824;2024-02-04T01:00:09;29.00;;;13.73;;
85223;SDS011;75619;51.316;4.824;2024-02-04T01:02:39;27.60;;;13.18;;
85223;SDS011;75619;51.316;4.824;2024-02-04T01:05:06;32.30;;;14.40;;
85223;SDS011;75619;51.316;4.824;2024-02-04T01:07:45;29.52;;;14.15;;
85223;SDS011;75619;51.316;4.824;2024-02-04T01:10:25;31.27;;;13.27;;
85223;SDS011;75619;51.316;4.824;2024-02-04T01:13:00;22.80;;;11.50;;
85223;SDS011;75619;51.316;4.824;2024-02-04T01:15:29;32.60;;;13.48;;
85223;SDS011;75619;51.316;4.824;2024-02-04T01:17:56;26.75;;;12.35;;
85223;SDS011;75619;51.316;4.824;2024-02-04T01:20:27;27.95;;;13.80;;
85223;SDS011;75619;51.316;4.824;2024-02-04T01:22:57;30.23;;;14.07;;
85223;SDS011;75619;51.316;4.824;2024-02-04T01:25:27;25.30;;;12.63;;
85223;SDS011;75619;51.316;4.824;2024-02-04T01:27:59;36.00;;;13.45;;
85223;SDS011;75619;51.316;4.824;2024-02-04T01:30:30;31.20;;;13.88;;
85223;SDS011;75619;51.316;4.824;2024-02-04T01:33:16;25.67;;;11.60;;
85223;SDS011;75619;51.316;4.824;2024-02-04T01:35:42;26.50;;;13.25;;
85223;SDS011;75619;51.316;4.824;2024-02-04T01:38:14;30.05;;;12.95;;
85223;SDS011;75619;51.316;4.824;2024-02-04T01:40:50;31.95;;;14.70;;
85223;SDS011;75619;51.316;4.824;2024-02-04T01:43:23;32.05;;;13.98;;
85223;SDS011;75619;51.316;4.824;2024-02-04T01:46:10;34.47;;;14.30;;
85223;SDS011;75619;51.316;4.824;2024-02-04T01:48:52;23.50;;;12.25;;
85223;SDS011;75619;51.316;4.824;2024-02-04T01:51:26;36.30;;;13.27;;
85223;SDS011;75619;51.316;4.824;2024-02-04T01:53:58;26.67;;;12.05;;
85223;SDS011;75619;51.316;4.824;2024-02-04T01:56:30;24.58;;;12.90;;
85223;SDS011;75619;51.316;4.824;2024-02-04T01:59:02;30.58;;;13.10;;
85223;SDS011;75619;51.316;4.824;2024-02-04T02:01:41;29.10;;;12.52;;
85223;SDS011;75619;51.316;4.824;2024-02-04T02:04:11;35.30;;;13.88;;
85223;SDS011;75619;51.316;4.824;2024-02-04T02:06:47;41.75;;;13.52;;
85223;SDS011;75619;51.316;4.824;2024-02-04T02:09:21;31.13;;;13.93;;
85223;SDS011;75619;51.316;4.824;2024-02-04T02:11:57;24.98;;;12.70;;
85223;SDS011;75619;51.316;4.824;2024-02-04T02:14:37;34.33;;;14.15;;
85223;SDS011;75619;51.316;4.824;2024-02-04T02:17:08;27.20;;;11.60;;
85223;SDS011;75619;51.316;4.824;2024-02-04T02:19:52;24.40;;;11.80;;
85223;SDS011;75619;51.316;4.824;2024-02-04T02:22:29;27.98;;;12.02;;
85223;SDS011;75619;51.316;4.824;2024-02-04T02:25:02;32.33;;;12.50;;
85223;SDS011;75619;51.316;4.824;2024-02-04T02:27:33;24.40;;;10.70;;
85223;SDS011;75619;51.316;4.824;2024-02-04T02:30:03;27.90;;;11.57;;
85223;SDS011;75619;51.316;4.824;2024-02-04T02:32:38;28.33;;;12.15;;
85223;SDS011;75619;51.316;4.824;2024-02-04T02:35:07;32.00;;;13.95;;
85223;SDS011;75619;51.316;4.824;2024-02-04T02:37:46;30.77;;;12.90;;
85223;SDS011;75619;51.316;4.824;2024-02-04T02:40:34;35.08;;;11.63;;
85223;SDS011;75619;51.316;4.824;2024-02-04T02:43:33;28.27;;;11.25;;
85223;SDS011;75619;51.316;4.824;2024-02-04T02:45:59;33.10;;;12.10;;
85223;SDS011;75619;51.316;4.824;2024-02-04T02:48:26;21.65;;;10.23;;
85223;SDS011;75619;51.316;4.824;2024-02-04T02:50:53;33.40;;;10.52;;
85223;SDS011;75619;51.316;4.824;2024-02-04T02:53:19;28.10;;;11.38;;
85223;SDS011;75619;51.316;4.824;2024-02-04T02:55:45;30.90;;;11.65;;
85223;SDS011;75619;51.316;4.824;2024-02-04T02:58:12;37.53;;;10.95;;
85223;SDS011;75619;51.316;4.824;2024-02-04T03:00:37;31.75;;;12.32;;
85223;SDS011;75619;51.316;4.824;2024-02-04T03:03:03;25.92;;;11.10;;
85223;SDS011;75619;51.316;4.824;2024-02-04T03:05:29;27.80;;;10.80;;
85223;SDS011;75619;51.316;4.824;2024-02-04T03:07:55;27.80;;;10.32;;
85223;SDS011;75619;51.316;4.824;2024-02-04T03:10:20;35.80;;;11.50;;
85223;SDS011;75619;51.316;4.824;2024-02-04T03:12:46;26.95;;;11.23;;
85223;SDS011;75619;51.316;4.824;2024-02-04T03:15:11;23.77;;;10.85;;
85223;SDS011;75619;51.316;4.824;2024-02-04T03:17:37;22.85;;;9.75;;
85223;SDS011;75619;51.316;4.824;2024-02-04T03:20:02;31.17;;;12.30;;
85223;SDS011;75619;51.316;4.824;2024-02-04T03:22:28;26.02;;;12.65;;
85223;SDS011;75619;51.316;4.824;2024-02-04T03:24:54;32.30;;;11.98;;
85223;SDS011;75619;51.316;4.824;2024-02-04T03:27:20;24.52;;;11.25;;
85223;SDS011;75619;51.316;4.824;2024-02-04T03:29:45;26.38;;;12.70;;
85223;SDS011;75619;51.316;4.824;2024-02-04T03:32:11;36.80;;;14.30;;
85223;SDS011;75619;51.316;4.824;2024-02-04T03:34:37;32.80;;;14.63;;
85223;SDS011;75619;51.316;4.824;2024-02-04T03:37:02;28.85;;;14.57;;
85223;SDS011;75619;51.316;4.824;2024-02-04T03:39:28;41.15;;;17.45;;
85223;SDS011;75619;51.316;4.824;2024-02-04T03:41:54;35.38;;;16.65;;
85223;SDS011;75619;51.316;4.824;2024-02-04T03:44:19;42.35;;;16.35;;
85223;SDS011;75619;51.316;4.824;2024-02-04T03:46:48;35.25;;;15.95;;
85223;SDS011;75619;51.316;4.824;2024-02-04T03:49:15;35.47;;;15.95;;
85223;SDS011;75619;51.316;4.824;2024-02-04T03:51:41;37.90;;;17.08;;
85223;SDS011;75619;51.316;4.824;2024-02-04T03:54:06;39.33;;;16.52;;
85223;SDS011;75619;51.316;4.824;2024-02-04T03:56:32;42.60;;;16.25;;
85223;SDS011;75619;51.316;4.824;2024-02-04T03:58:57;44.08;;;17.90;;
85223;SDS011;75619;51.316;4.824;2024-02-04T04:01:23;38.35;;;18.48;;
85223;SDS011;75619;51.316;4.824;2024-02-04T04:03:49;40.08;;;16.42;;
85223;SDS011;75619;51.316;4.824;2024-02-04T04:06:14;40.47;;;18.05;;
85223;SDS011;75619;51.316;4.824;2024-02-04T04:08:40;45.78;;;17.48;;
85223;SDS011;75619;51.316;4.824;2024-02-04T04:11:07;44.65;;;17.30;;
85223;SDS011;75619;51.316;4.824;2024-02-04T04:13:33;45.33;;;16.98;;
85223;SDS011;75619;51.316;4.824;2024-02-04T04:16:00;49.22;;;18.52;;
85223;SDS011;75619;51.316;4.824;2024-02-04T04:18:26;52.25;;;17.75;;
85223;SDS011;75619;51.316;4.824;2024-02-04T04:20:51;41.70;;;18.55;;
85223;SDS011;75619;51.316;4.824;2024-02-04T04:23:17;44.72;;;20.17;;
85223;SDS011;75619;51.316;4.824;2024-02-04T04:25:42;48.70;;;18.08;;
85223;SDS011;75619;51.316;4.824;2024-02-04T04:28:08;41.65;;;18.08;;
85223;SDS011;75619;51.316;4.824;2024-02-04T04:30:34;50.17;;;17.55;;
85223;SDS011;75619;51.316;4.824;2024-02-04T04:32:59;41.90;;;16.92;;
85223;SDS011;75619;51.316;4.824;2024-02-04T04:35:25;47.92;;;18.33;;
85223;SDS011;75619;51.316;4.824;2024-02-04T04:37:50;48.78;;;20.30;;
85223;SDS011;75619;51.316;4.824;2024-02-04T04:40:16;52.30;;;18.45;;
85223;SDS011;75619;51.316;4.824;2024-02-04T04:42:41;44.70;;;17.90;;
85223;SDS011;75619;51.316;4.824;2024-02-04T04:45:07;48.13;;;17.98;;
85223;SDS011;75619;51.316;4.824;2024-02-04T04:47:33;47.72;;;18.17;;
85223;SDS011;75619;51.316;4.824;2024-02-04T04:49:59;49.13;;;20.85;;
85223;SDS011;75619;51.316;4.824;2024-02-04T04:52:25;44.72;;;16.63;;
85223;SDS011;75619;51.316;4.824;2024-02-04T04:54:50;47.45;;;17.35;;
85223;SDS011;75619;51.316;4.824;2024-02-04T04:57:16;35.50;;;16.20;;
85223;SDS011;75619;51.316;4.824;2024-02-04T04:59:41;36.13;;;17.50;;
85223;SDS011;75619;51.316;4.824;2024-02-04T05:02:08;45.95;;;19.00;;
85223;SDS011;75619;51.316;4.824;2024-02-04T05:04:33;34.03;;;16.08;;
85223;SDS011;75619;51.316;4.824;2024-02-04T05:06:59;38.58;;;14.82;;
85223;SDS011;75619;51.316;4.824;2024-02-04T05:09:24;34.03;;;15.80;;
85223;SDS011;75619;51.316;4.824;2024-02-04T05:11:50;31.30;;;15.82;;
85223;SDS011;75619;51.316;4.824;2024-02-04T05:14:15;29.70;;;14.65;;
85223;SDS011;75619;51.316;4.824;2024-02-04T05:16:41;37.33;;;15.63;;
85223;SDS011;75619;51.316;4.824;2024-02-04T05:19:09;26.75;;;13.40;;
85223;SDS011;75619;51.316;4.824;2024-02-04T05:21:37;32.83;;;15.73;;
85223;SDS011;75619;51.316;4.824;2024-02-04T05:24:04;35.50;;;13.75;;
85223;SDS011;75619;51.316;4.824;2024-02-04T05:26:30;28.10;;;13.57;;
85223;SDS011;75619;51.316;4.824;2024-02-04T05:28:55;27.70;;;13.52;;
85223;SDS011;75619;51.316;4.824;2024-02-04T05:31:21;26.73;;;14.32;;
85223;SDS011;75619;51.316;4.824;2024-02-04T05:33:46;29.20;;;13.13;;
85223;SDS011;75619;51.316;4.824;2024-02-04T05:36:12;30.95;;;13.10;;
85223;SDS011;75619;51.316;4.824;2024-02-04T05:38:37;27.30;;;14.57;;
85223;SDS011;75619;51.316;4.824;2024-02-04T05:41:03;30.00;;;14.60;;
85223;SDS011;75619;51.316;4.824;2024-02-04T05:43:29;32.92;;;14.85;;
85223;SDS011;75619;51.316;4.824;2024-02-04T05:45:54;34.88;;;16.13;;
85223;SDS011;75619;51.316;4.824;2024-02-04T05:48:20;34.85;;;14.57;;
85223;SDS011;75619;51.316;4.824;2024-02-04T05:50:45;34.22;;;15.75;;
85223;SDS011;75619;51.316;4.824;2024-02-04T05:53:11;33.83;;;15.30;;
85223;SDS011;75619;51.316;4.824;2024-02-04T05:55:36;31.50;;;13.77;;
85223;SDS011;75619;51.316;4.824;2024-02-04T05:58:02;25.05;;;14.23;;
85223;SDS011;75619;51.316;4.824;2024-02-04T06:00:28;30.27;;;14.27;;
85223;SDS011;75619;51.316;4.824;2024-02-04T06:02:54;38.15;;;16.20;;
85223;SDS011;75619;51.316;4.824;2024-02-04T06:05:20;28.45;;;14.10;;
85223;SDS011;75619;51.316;4.824;2024-02-04T06:07:46;34.45;;;14.93;;
85223;SDS011;75619;51.316;4.824;2024-02-04T06:10:11;38.63;;;13.93;;
85223;SDS011;75619;51.316;4.824;2024-02-04T06:12:37;32.92;;;13.25;;
85223;SDS011;75619;51.316;4.824;2024-02-04T06:15:06;33.38;;;13.30;;
85223;SDS011;75619;51.316;4.824;2024-02-04T06:17:37;37.55;;;13.55;;
85223;SDS011;75619;51.316;4.824;2024-02-04T06:20:03;31.85;;;14.27;;
85223;SDS011;75619;51.316;4.824;2024-02-04T06:22:29;40.92;;;14.57;;
85223;SDS011;75619;51.316;4.824;2024-02-04T06:24:54;30.20;;;13.07;;
85223;SDS011;75619;51.316;4.824;2024-02-04T06:27:20;31.77;;;14.43;;
85223;SDS011;75619;51.316;4.824;2024-02-04T06:29:45;33.35;;;14.30;;
85223;SDS011;75619;51.316;4.824;2024-02-04T06:32:11;33.53;;;13.10;;
85223;SDS011;75619;51.316;4.824;2024-02-04T06:34:37;30.52;;;12.88;;
85223;SDS011;75619;51.316;4.824;2024-02-04T06:37:02;31.55;;;14.95;;
85223;SDS011;75619;51.316;4.824;2024-02-04T06:39:28;31.10;;;12.27;;
85223;SDS011;75619;51.316;4.824;2024-02-04T06:41:53;27.35;;;12.10;;
85223;SDS011;75619;51.316;4.824;2024-02-04T06:44:19;29.65;;;13.02;;
85223;SDS011;75619;51.316;4.824;2024-02-04T06:46:45;33.55;;;13.40;;
85223;SDS011;75619;51.316;4.824;2024-02-04T06:49:10;29.13;;;12.32;;
85223;SDS011;75619;51.316;4.824;2024-02-04T06:51:36;35.38;;;13.27;;
85223;SDS011;75619;51.316;4.824;2024-02-04T06:54:01;28.00;;;12.50;;
85223;SDS011;75619;51.316;4.824;2024-02-04T06:56:27;29.63;;;12.52;;
85223;SDS011;75619;51.316;4.824;2024-02-04T06:58:53;24.55;;;11.70;;
85223;SDS011;75619;51.316;4.824;2024-02-04T07:01:18;33.33;;;13.10;;
85223;SDS011;75619;51.316;4.824;2024-02-04T07:03:44;33.47;;;13.48;;
85223;SDS011;75619;51.316;4.824;2024-02-04T07:06:09;29.88;;;11.73;;
85223;SDS011;75619;51.316;4.824;2024-02-04T07:08:35;26.45;;;12.50;;
85223;SDS011;75619;51.316;4.824;2024-02-04T07:11:01;30.83;;;13.07;;
85223;SDS011;75619;51.316;4.824;2024-02-04T07:13:26;38.85;;;15.18;;
85223;SDS011;75619;51.316;4.824;2024-02-04T07:15:52;25.83;;;12.98;;
85223;SDS011;75619;51.316;4.824;2024-02-04T07:18:19;29.98;;;13.73;;
85223;SDS011;75619;51.316;4.824;2024-02-04T07:20:47;29.55;;;13.77;;
85223;SDS011;75619;51.316;4.824;2024-02-04T07:23:13;29.67;;;13.95;;
85223;SDS011;75619;51.316;4.824;2024-02-04T07:25:38;30.65;;;13.10;;
85223;SDS011;75619;51.316;4.824;2024-02-04T07:28:04;39.33;;;20.02;;
85223;SDS011;75619;51.316;4.824;2024-02-04T07:30:30;32.50;;;16.60;;
85223;SDS011;75619;51.316;4.824;2024-02-04T07:32:55;34.10;;;16.67;;
85223;SDS011;75619;51.316;4.824;2024-02-04T07:35:20;26.92;;;12.95;;
85223;SDS011;75619;51.316;4.824;2024-02-04T07:37:46;27.67;;;13.65;;
85223;SDS011;75619;51.316;4.824;2024-02-04T07:40:12;28.20;;;12.50;;
85223;SDS011;75619;51.316;4.824;2024-02-04T07:42:37;29.52;;;11.88;;
85223;SDS011;75619;51.316;4.824;2024-02-04T07:45:03;30.90;;;12.20;;
85223;SDS011;75619;51.316;4.824;2024-02-04T07:47:34;30.05;;;14.25;;
85223;SDS011;75619;51.316;4.824;2024-02-04T07:49:59;36.45;;;14.73;;
85223;SDS011;75619;51.316;4.824;2024-02-04T07:52:25;28.08;;;14.50;;
85223;SDS011;75619;51.316;4.824;2024-02-04T07:54:50;31.23;;;13.55;;
85223;SDS011;75619;51.316;4.824;2024-02-04T07:57:16;35.25;;;13.45;;
85223;SDS011;75619;51.316;4.824;2024-02-04T07:59:41;33.42;;;14.70;;
85223;SDS011;75619;51.316;4.824;2024-02-04T08:02:07;24.08;;;12.82;;
85223;SDS011;75619;51.316;4.824;2024-02-04T08:04:33;31.67;;;14.70;;
85223;SDS011;75619;51.316;4.824;2024-02-04T08:06:58;31.73;;;15.02;;
85223;SDS011;75619;51.316;4.824;2024-02-04T08:09:24;30.02;;;13.60;;
85223;SDS011;75619;51.316;4.824;2024-02-04T08:11:50;27.80;;;13.30;;
85223;SDS011;75619;51.316;4.824;2024-02-04T08:14:15;31.83;;;14.82;;
85223;SDS011;75619;51.316;4.824;2024-02-04T08:16:42;28.13;;;13.55;;
85223;SDS011;75619;51.316;4.824;2024-02-04T08:19:08;27.52;;;12.90;;
85223;SDS011;75619;51.316;4.824;2024-02-04T08:21:34;24.05;;;12.80;;
85223;SDS011;75619;51.316;4.824;2024-02-04T08:23:59;25.33;;;11.23;;
85223;SDS011;75619;51.316;4.824;2024-02-04T08:26:25;30.50;;;13.35;;
85223;SDS011;75619;51.316;4.824;2024-02-04T08:28:50;23.75;;;11.20;;
85223;SDS011;75619;51.316;4.824;2024-02-04T08:31:16;32.67;;;12.90;;
85223;SDS011;75619;51.316;4.824;2024-02-04T08:33:41;28.08;;;11.90;;
85223;SDS011;75619;51.316;4.824;2024-02-04T08:36:07;23.60;;;11.88;;
85223;SDS011;75619;51.316;4.824;2024-02-04T08:38:35;24.33;;;10.43;;
85223;SDS011;75619;51.316;4.824;2024-02-04T08:41:02;24.40;;;12.55;;
85223;SDS011;75619;51.316;4.824;2024-02-04T08:43:28;22.05;;;9.38;;
85223;SDS011;75619;51.316;4.824;2024-02-04T08:45:53;22.10;;;10.60;;
85223;SDS011;75619;51.316;4.824;2024-02-04T08:48:19;24.85;;;11.07;;
85223;SDS011;75619;51.316;4.824;2024-02-04T08:50:45;21.30;;;9.65;;
85223;SDS011;75619;51.316;4.824;2024-02-04T08:53:10;17.63;;;8.95;;
85223;SDS011;75619;51.316;4.824;2024-02-04T08:55:36;20.45;;;10.25;;
85223;SDS011;75619;51.316;4.824;2024-02-04T08:58:05;20.52;;;9.45;;
85223;SDS011;75619;51.316;4.824;2024-02-04T09:00:31;21.45;;;8.98;;
85223;SDS011;75619;51.316;4.824;2024-02-04T09:02:57;22.98;;;9.05;;
85223;SDS011;75619;51.316;4.824;2024-02-04T09:05:22;18.60;;;9.23;;
85223;SDS011;75619;51.316;4.824;2024-02-04T09:07:48;16.75;;;9.68;;
85223;SDS011;75619;51.316;4.824;2024-02-04T09:10:14;15.45;;;8.30;;
85223;SDS011;75619;51.316;4.824;2024-02-04T09:12:39;15.60;;;7.82;;
85223;SDS011;75619;51.316;4.824;2024-02-04T09:15:05;15.98;;;8.35;;
85223;SDS011;75619;51.316;4.824;2024-02-04T09:17:31;17.23;;;7.72;;
85223;SDS011;75619;51.316;4.824;2024-02-04T09:20:00;15.40;;;7.05;;
85223;SDS011;75619;51.316;4.824;2024-02-04T09:22:25;12.23;;;6.22;;
85223;SDS011;75619;51.316;4.824;2024-02-04T09:24:51;12.68;;;6.75;;
85223;SDS011;75619;51.316;4.824;2024-02-04T09:27:17;14.43;;;6.93;;
85223;SDS011;75619;51.316;4.824;2024-02-04T09:29:42;23.95;;;6.72;;
85223;SDS011;75619;51.316;4.824;2024-02-04T09:32:07;16.80;;;8.48;;
85223;SDS011;75619;51.316;4.824;2024-02-04T09:34:33;16.70;;;6.85;;
85223;SDS011;75619;51.316;4.824;2024-02-04T09:36:59;15.02;;;6.57;;
85223;SDS011;75619;51.316;4.824;2024-02-04T09:39:24;14.48;;;6.18;;
85223;SDS011;75619;51.316;4.824;2024-02-04T09:41:50;12.90;;;6.60;;
85223;SDS011;75619;51.316;4.824;2024-02-04T09:44:15;11.40;;;6.57;;
85223;SDS011;75619;51.316;4.824;2024-02-04T09:46:42;13.00;;;6.43;;
85223;SDS011;75619;51.316;4.824;2024-02-04T09:49:09;11.30;;;6.13;;
85223;SDS011;75619;51.316;4.824;2024-02-04T09:51:35;13.57;;;6.90;;
85223;SDS011;75619;51.316;4.824;2024-02-04T09:54:03;13.20;;;6.22;;
85223;SDS011;75619;51.316;4.824;2024-02-04T09:56:31;14.00;;;7.32;;
85223;SDS011;75619;51.316;4.824;2024-02-04T09:58:58;16.15;;;6.90;;
85223;SDS011;75619;51.316;4.824;2024-02-04T10:01:23;14.75;;;7.00;;
85223;SDS011;75619;51.316;4.824;2024-02-04T10:03:50;16.70;;;7.57;;
85223;SDS011;75619;51.316;4.824;2024-02-04T10:06:16;14.65;;;6.35;;
85223;SDS011;75619;51.316;4.824;2024-02-04T10:08:42;14.88;;;6.35;;
85223;SDS011;75619;51.316;4.824;2024-02-04T10:11:07;11.85;;;5.40;;
85223;SDS011;75619;51.316;4.824;2024-02-04T10:13:47;13.55;;;6.07;;
85223;SDS011;75619;51.316;4.824;2024-02-04T10:16:14;13.20;;;6.93;;
85223;SDS011;75619;51.316;4.824;2024-02-04T10:18:46;15.48;;;7.80;;
85223;SDS011;75619;51.316;4.824;2024-02-04T10:21:17;18.73;;;7.22;;
85223;SDS011;75619;51.316;4.824;2024-02-04T10:23:45;12.35;;;7.38;;
85223;SDS011;75619;51.316;4.824;2024-02-04T10:26:14;15.25;;;6.55;;
85223;SDS011;75619;51.316;4.824;2024-02-04T10:28:40;10.57;;;5.35;;
85223;SDS011;75619;51.316;4.824;2024-02-04T10:31:09;14.93;;;6.10;;
85223;SDS011;75619;51.316;4.824;2024-02-04T10:33:37;13.52;;;7.18;;
85223;SDS011;75619;51.316;4.824;2024-02-04T10:36:03;16.00;;;7.88;;
85223;SDS011;75619;51.316;4.824;2024-02-04T10:38:30;15.60;;;7.53;;
85223;SDS011;75619;51.316;4.824;2024-02-04T10:40:56;16.63;;;5.97;;
85223;SDS011;75619;51.316;4.824;2024-02-04T10:43:24;12.90;;;5.82;;
85223;SDS011;75619;51.316;4.824;2024-02-04T10:48:36;17.90;;;5.55;;
85223;SDS011;75619;51.316;4.824;2024-02-04T10:51:09;12.75;;;5.30;;
85223;SDS011;75619;51.316;4.824;2024-02-04T10:53:42;9.77;;;5.28;;
85223;SDS011;75619;51.316;4.824;2024-02-04T10:56:13;15.32;;;6.05;;
85223;SDS011;75619;51.316;4.824;2024-02-04T10:58:54;11.82;;;5.72;;
85223;SDS011;75619;51.316;4.824;2024-02-04T11:01:21;9.68;;;4.82;;
85223;SDS011;75619;51.316;4.824;2024-02-04T11:03:48;9.52;;;4.60;;
85223;SDS011;75619;51.316;4.824;2024-02-04T11:06:16;12.80;;;5.05;;
85223;SDS011;75619;51.316;4.824;2024-02-04T11:08:46;10.95;;;4.97;;
85223;SDS011;75619;51.316;4.824;2024-02-04T11:11:12;7.88;;;4.18;;
85223;SDS011;75619;51.316;4.824;2024-02-04T11:13:38;9.27;;;5.18;;
85223;SDS011;75619;51.316;4.824;2024-02-04T11:16:11;9.05;;;4.45;;
85223;SDS011;75619;51.316;4.824;2024-02-04T11:21:32;20.38;;;9.55;;
85223;SDS011;75619;51.316;4.824;2024-02-04T11:26:53;14.82;;;7.43;;
85223;SDS011;75619;51.316;4.824;2024-02-04T11:29:19;11.98;;;6.13;;
85223;SDS011;75619;51.316;4.824;2024-02-04T11:31:45;13.20;;;4.07;;
85223;SDS011;75619;51.316;4.824;2024-02-04T11:34:11;9.85;;;4.13;;
85223;SDS011;75619;51.316;4.824;2024-02-04T11:36:40;14.38;;;6.95;;
85223;SDS011;75619;51.316;4.824;2024-02-04T11:39:12;15.27;;;7.70;;
85223;SDS011;75619;51.316;4.824;2024-02-04T11:41:45;9.80;;;6.13;;
85223;SDS011;75619;51.316;4.824;2024-02-04T11:44:24;14.43;;;9.50;;
85223;SDS011;75619;51.316;4.824;2024-02-04T11:46:51;11.60;;;8.15;;
85223;SDS011;75619;51.316;4.824;2024-02-04T11:49:17;8.65;;;6.53;;
85223;SDS011;75619;51.316;4.824;2024-02-04T11:51:50;10.98;;;7.60;;
85223;SDS011;75619;51.316;4.824;2024-02-04T11:54:17;8.02;;;4.90;;
85223;SDS011;75619;51.316;4.824;2024-02-04T11:56:50;10.32;;;4.75;;
85223;SDS011;75619;51.316;4.824;2024-02-04T11:59:24;9.73;;;4.68;;
85223;SDS011;75619;51.316;4.824;2024-02-04T12:01:55;11.43;;;4.85;;
85223;SDS011;75619;51.316;4.824;2024-02-04T12:04:21;9.13;;;4.55;;
85223;SDS011;75619;51.316;4.824;2024-02-04T12:06:47;11.02;;;4.97;;
85223;SDS011;75619;51.316;4.824;2024-02-04T12:09:16;6.78;;;4.45;;
85223;SDS011;75619;51.316;4.824;2024-02-04T12:11:43;8.02;;;3.95;;
85223;SDS011;75619;51.316;4.824;2024-02-04T12:14:09;12.27;;;5.63;;
85223;SDS011;75619;51.316;4.824;2024-02-04T12:16:35;7.93;;;4.45;;
85223;SDS011;75619;51.316;4.824;2024-02-04T12:19:02;11.07;;;4.53;;
85223;SDS011;75619;51.316;4.824;2024-02-04T12:21:31;7.82;;;4.38;;
85223;SDS011;75619;51.316;4.824;2024-02-04T12:23:58;5.55;;;4.15;;
85223;SDS011;75619;51.316;4.824;2024-02-04T12:26:24;8.63;;;4.57;;
85223;SDS011;75619;51.316;4.824;2024-02-04T12:28:50;10.10;;;5.10;;
85223;SDS011;75619;51.316;4.824;2024-02-04T12:31:19;8.65;;;4.85;;
85223;SDS011;75619;51.316;4.824;2024-02-04T12:33:58;8.38;;;4.22;;
85223;SDS011;75619;51.316;4.824;2024-02-04T12:36:26;12.32;;;4.15;;
85223;SDS011;75619;51.316;4.824;2024-02-04T12:38:56;20.88;;;10.57;;
85223;SDS011;75619;51.316;4.824;2024-02-04T12:41:23;19.77;;;9.15;;
85223;SDS011;75619;51.316;4.824;2024-02-04T12:43:59;17.73;;;9.98;;
85223;SDS011;75619;51.316;4.824;2024-02-04T12:46:30;17.40;;;9.85;;
85223;SDS011;75619;51.316;4.824;2024-02-04T12:48:57;27.40;;;14.45;;
85223;SDS011;75619;51.316;4.824;2024-02-04T12:51:27;12.57;;;6.88;;
85223;SDS011;75619;51.316;4.824;2024-02-04T12:54:03;15.18;;;7.68;;
85223;SDS011;75619;51.316;4.824;2024-02-04T12:56:54;11.52;;;4.75;;
85223;SDS011;75619;51.316;4.824;2024-02-04T12:59:27;13.10;;;7.70;;
85223;SDS011;75619;51.316;4.824;2024-02-04T13:01:57;13.60;;;5.90;;
85223;SDS011;75619;51.316;4.824;2024-02-04T13:04:24;6.80;;;3.70;;
85223;SDS011;75619;51.316;4.824;2024-02-04T13:06:50;9.98;;;5.78;;
85223;SDS011;75619;51.316;4.824;2024-02-04T13:09:16;7.82;;;5.10;;
85223;SDS011;75619;51.316;4.824;2024-02-04T13:11:42;11.93;;;5.47;;
85223;SDS011;75619;51.316;4.824;2024-02-04T13:14:09;9.15;;;4.65;;
85223;SDS011;75619;51.316;4.824;2024-02-04T13:16:35;10.48;;;4.63;;
85223;SDS011;75619;51.316;4.824;2024-02-04T13:19:02;11.05;;;4.13;;
85223;SDS011;75619;51.316;4.824;2024-02-04T13:21:28;7.82;;;4.10;;
85223;SDS011;75619;51.316;4.824;2024-02-04T13:23:53;9.30;;;4.20;;
85223;SDS011;75619;51.316;4.824;2024-02-04T13:26:19;11.88;;;5.03;;
85223;SDS011;75619;51.316;4.824;2024-02-04T13:28:45;9.77;;;4.60;;
85223;SDS011;75619;51.316;4.824;2024-02-04T13:31:11;8.93;;;4.45;;
85223;SDS011;75619;51.316;4.824;2024-02-04T13:33:40;8.90;;;4.93;;
85223;SDS011;75619;51.316;4.824;2024-02-04T13:36:09;8.93;;;4.47;;
85223;SDS011;75619;51.316;4.824;2024-02-04T13:38:35;10.50;;;4.43;;
85223;SDS011;75619;51.316;4.824;2024-02-04T13:41:02;7.82;;;4.43;;
85223;SDS011;75619;51.316;4.824;2024-02-04T13:43:29;6.90;;;3.47;;
85223;SDS011;75619;51.316;4.824;2024-02-04T13:45:55;5.38;;;3.60;;
85223;SDS011;75619;51.316;4.824;2024-02-04T13:48:21;8.30;;;4.25;;
85223;SDS011;75619;51.316;4.824;2024-02-04T13:50:47;11.30;;;5.45;;
85223;SDS011;75619;51.316;4.824;2024-02-04T13:53:13;12.98;;;6.68;;
85223;SDS011;75619;51.316;4.824;2024-02-04T13:55:39;33.55;;;13.13;;
85223;SDS011;75619;51.316;4.824;2024-02-04T13:58:05;26.15;;;8.90;;
85223;SDS011;75619;51.316;4.824;2024-02-04T14:00:30;24.77;;;10.98;;
85223;SDS011;75619;51.316;4.824;2024-02-04T14:02:56;10.02;;;3.92;;
85223;SDS011;75619;51.316;4.824;2024-02-04T14:05:21;10.82;;;4.05;;
85223;SDS011;75619;51.316;4.824;2024-02-04T14:07:48;9.48;;;4.90;;
85223;SDS011;75619;51.316;4.824;2024-02-04T14:10:14;8.57;;;4.57;;
85223;SDS011;75619;51.316;4.824;2024-02-04T14:12:40;9.82;;;4.68;;
85223;SDS011;75619;51.316;4.824;2024-02-04T14:15:09;8.13;;;4.60;;
85223;SDS011;75619;51.316;4.824;2024-02-04T14:17:35;8.13;;;4.72;;
85223;SDS011;75619;51.316;4.824;2024-02-04T14:20:00;6.00;;;4.05;;
85223;SDS011;75619;51.316;4.824;2024-02-04T14:22:26;7.82;;;3.75;;
85223;SDS011;75619;51.316;4.824;2024-02-04T14:24:53;7.93;;;4.53;;
85223;SDS011;75619;51.316;4.824;2024-02-04T14:27:18;12.73;;;5.78;;
85223;SDS011;75619;51.316;4.824;2024-02-04T14:29:44;7.53;;;4.53;;
85223;SDS011;75619;51.316;4.824;2024-02-04T14:32:09;8.20;;;4.45;;
85223;SDS011;75619;51.316;4.824;2024-02-04T14:34:35;10.48;;;4.25;;
85223;SDS011;75619;51.316;4.824;2024-02-04T14:37:00;6.25;;;4.25;;
85223;SDS011;75619;51.316;4.824;2024-02-04T14:39:26;7.45;;;3.45;;
85223;SDS011;75619;51.316;4.824;2024-02-04T14:41:52;7.65;;;4.10;;